Time;durP1;ratioP1;P1;durP2;ratioP2;P2;SDS_P1;SDS_P2;PMS_P1;PMS_P2;Temp;Humidity;BMP_temperature;BMP_pressure;BME280_temperature;BME280_humidity;BME280_pressure;Samples;Min_cycle;Max_cycle;Signal;HPM_P1;HPM_P2
2022/07/17 00:00:22;;;;;;;8.73;2.70;;;;;;;13.02;77.19;102513.69;5027398;28;20030;-74
2022/07/17 00:02:48;;;;;;;16.88;3.42;;;;;;;13.01;77.44;102515.47;5029756;28;20033;-74
2022/07/17 00:05:13;;;;;;;16.17;2.90;;;;;;;12.99;77.22;102521.91;5025660;28;20029;-74
2022/07/17 00:07:38;;;;;;;12.45;3.28;;;;;;;12.98;77.80;102522.91;5027678;28;20038;-74
2022/07/17 00:10:04;;;;;;;9.15;2.95;;;;;;;12.98;77.73;102517.50;5022242;28;20389;-74
2022/07/17 00:12:30;;;;;;;11.55;3.30;;;;;;;12.97;77.47;102523.84;5022385;28;20029;-74
2022/07/17 00:14:55;;;;;;;12.10;3.13;;;;;;;12.97;77.36;102523.84;5029348;28;20029;-74
2022/07/17 00:17:21;;;;;;;11.88;3.03;;;;;;;12.89;77.33;102524.28;5030174;28;20517;-74
2022/07/17 00:19:46;;;;;;;11.60;3.28;;;;;;;12.87;77.50;102526.19;5028198;28;20060;-74
2022/07/17 00:22:12;;;;;;;11.40;3.20;;;;;;;12.86;77.11;102529.88;5022140;28;20508;-74
2022/07/17 00:24:37;;;;;;;12.68;3.15;;;;;;;12.86;77.41;102529.88;5028232;28;20059;-74
2022/07/17 00:27:03;;;;;;;7.97;2.88;;;;;;;12.83;77.62;102530.91;5022906;28;20405;-74
2022/07/17 00:29:28;;;;;;;10.57;3.10;;;;;;;12.80;77.85;102524.78;5043670;28;20029;-74
2022/07/17 00:31:53;;;;;;;13.18;3.65;;;;;;;12.74;77.95;102523.31;5029815;28;20511;-74
2022/07/17 00:34:18;;;;;;;8.32;3.60;;;;;;;12.70;78.06;102528.00;5026039;28;20029;-74
2022/07/17 00:36:44;;;;;;;9.90;3.30;;;;;;;12.67;78.11;102525.47;5030022;28;20535;-74
2022/07/17 00:39:09;;;;;;;16.15;3.60;;;;;;;12.59;78.32;102523.22;5022372;28;20061;-74
2022/07/17 00:41:35;;;;;;;11.27;3.53;;;;;;;12.53;78.70;102526.25;5029069;28;20473;-74
2022/07/17 00:44:08;;;;;;;9.40;3.53;;;;;;;12.48;78.71;102520.22;5023178;28;20037;-74
2022/07/17 00:46:34;;;;;;;12.88;3.75;;;;;;;12.45;79.06;102525.78;5024814;28;20095;-74
2022/07/17 00:48:59;;;;;;;12.15;3.03;;;;;;;12.45;79.02;102519.53;5027274;28;20033;-74
2022/07/17 00:51:25;;;;;;;12.95;4.15;;;;;;;12.37;79.40;102528.91;5019668;28;20061;-74
2022/07/17 00:53:51;;;;;;;13.52;3.58;;;;;;;12.34;79.34;102526.38;5029441;28;20025;-74
2022/07/17 00:56:17;;;;;;;10.57;3.58;;;;;;;12.34;79.48;102528.19;5017293;28;20030;-74
2022/07/17 00:58:44;;;;;;;7.88;3.08;;;;;;;12.29;79.06;102524.88;5026407;28;20079;-74
2022/07/17 01:01:09;;;;;;;12.55;3.55;;;;;;;12.29;79.17;102524.88;5025917;28;20542;-74
2022/07/17 01:03:35;;;;;;;11.55;3.30;;;;;;;12.27;79.44;102522.28;5030408;28;20132;-74
2022/07/17 01:06:01;;;;;;;15.07;3.65;;;;;;;12.22;79.15;102516.25;5023464;28;20026;-74
2022/07/17 01:08:27;;;;;;;14.05;4.35;;;;;;;12.21;79.03;102519.88;5030196;28;20034;-74
2022/07/17 01:10:52;;;;;;;11.25;3.47;;;;;;;12.17;79.42;102518.34;5026465;28;20060;-74
2022/07/17 01:13:18;;;;;;;11.25;3.75;;;;;;;12.14;79.43;102511.28;5031572;28;20404;-74
2022/07/17 01:15:44;;;;;;;10.50;3.58;;;;;;;12.12;79.88;102520.38;5023469;28;20049;-74
2022/07/17 01:18:11;;;;;;;10.93;3.38;;;;;;;12.05;79.32;102517.16;5017776;28;20014;-74
2022/07/17 01:20:40;;;;;;;11.98;3.92;;;;;;;12.00;79.82;102511.13;5014655;28;20053;-74
2022/07/17 01:23:05;;;;;;;11.70;3.55;;;;;;;11.99;79.80;102515.66;5027003;28;20022;-74
2022/07/17 01:25:31;;;;;;;15.27;3.83;;;;;;;11.93;80.03;102517.75;5025796;28;20126;-74
2022/07/17 01:27:57;;;;;;;13.85;3.50;;;;;;;11.88;80.12;102520.69;5034417;28;20029;-73
2022/07/17 01:30:22;;;;;;;10.90;3.55;;;;;;;11.81;80.30;102516.56;5032939;28;20025;-73
2022/07/17 01:32:48;;;;;;;8.00;3.08;;;;;;;11.79;80.48;102513.09;5034861;28;20037;-73
2022/07/17 01:35:15;;;;;;;11.75;3.90;;;;;;;11.77;80.53;102507.78;5028760;28;20029;-73
2022/07/17 01:37:41;;;;;;;14.15;3.88;;;;;;;11.79;80.73;102500.50;5025660;28;20025;-73
2022/07/17 01:40:08;;;;;;;12.70;4.22;;;;;;;11.73;80.89;102506.22;5025458;28;20075;-73
2022/07/17 01:42:34;;;;;;;13.95;4.03;;;;;;;11.71;80.89;102500.91;5027571;28;20030;-73
2022/07/17 01:44:59;;;;;;;11.95;3.88;;;;;;;11.69;80.88;102504.63;5029236;28;20686;-73
2022/07/17 01:47:25;;;;;;;16.48;3.97;;;;;;;11.64;80.70;102512.03;5027372;28;20507;-73
2022/07/17 01:49:52;;;;;;;14.70;3.72;;;;;;;11.58;80.95;102518.66;5024739;28;20088;-73
2022/07/17 01:52:18;;;;;;;12.48;3.75;;;;;;;11.46;81.27;102514.72;5030910;28;20427;-73
2022/07/17 01:54:44;;;;;;;9.98;3.20;;;;;;;11.44;81.52;102519.31;5032486;28;20128;-73
2022/07/17 01:57:10;;;;;;;12.18;3.72;;;;;;;11.47;81.32;102521.84;5031610;28;20028;-73
2022/07/17 01:59:36;;;;;;;10.75;4.20;;;;;;;11.49;81.31;102527.16;5032573;28;20029;-73
2022/07/17 02:02:04;;;;;;;15.95;4.00;;;;;;;11.47;80.68;102521.84;5021015;28;20037;-73
2022/07/17 02:04:30;;;;;;;9.95;3.38;;;;;;;11.48;80.90;102531.69;5019826;28;20057;-73
2022/07/17 02:06:55;;;;;;;9.82;3.22;;;;;;;11.41;80.91;102532.94;5028944;28;20111;-73
2022/07/17 02:09:22;;;;;;;10.82;3.28;;;;;;;11.38;80.76;102533.09;5033515;28;20026;-73
2022/07/17 02:11:47;;;;;;;11.98;3.92;;;;;;;11.40;80.34;102527.63;5030989;28;20026;-73
2022/07/17 02:14:12;;;;;;;8.95;3.00;;;;;;;11.40;80.27;102524.94;5029981;28;20037;-73
2022/07/17 02:16:37;;;;;;;10.30;3.58;;;;;;;11.34;80.65;102526.97;5031376;28;20052;-73
2022/07/17 02:19:03;;;;;;;14.75;4.15;;;;;;;11.29;80.29;102528.16;5032559;28;20041;-73
2022/07/17 02:21:28;;;;;;;11.23;3.78;;;;;;;11.25;80.63;102521.19;5031673;28;21425;-73
2022/07/17 02:23:53;;;;;;;11.93;3.97;;;;;;;11.23;80.34;102523.97;5029806;28;20040;-73
2022/07/17 02:26:19;;;;;;;9.85;3.55;;;;;;;11.14;80.94;102522.59;5020070;28;20100;-73
2022/07/17 02:28:44;;;;;;;16.17;3.85;;;;;;;11.09;81.39;102529.16;5030555;28;20022;-73
2022/07/17 02:31:09;;;;;;;13.45;4.05;;;;;;;11.10;81.54;102521.00;5032396;28;20036;-73
2022/07/17 02:33:34;;;;;;;13.20;4.15;;;;;;;11.14;82.03;102513.63;5032671;28;20033;-73
2022/07/17 02:36:01;;;;;;;15.05;4.43;;;;;;;11.16;81.72;102525.22;5022907;28;20481;-73
2022/07/17 02:38:26;;;;;;;14.18;4.22;;;;;;;11.11;82.18;102522.75;5029761;28;20036;-73
2022/07/17 02:40:52;;;;;;;16.30;3.90;;;;;;;11.04;81.86;102523.09;5028318;28;20022;-73
2022/07/17 02:43:17;;;;;;;11.23;3.95;;;;;;;11.02;82.37;102509.72;5031743;28;20052;-73
2022/07/17 02:45:42;;;;;;;17.50;4.00;;;;;;;11.03;82.04;102503.41;5028053;28;20030;-73
2022/07/17 02:48:08;;;;;;;13.05;4.25;;;;;;;11.07;81.84;102502.31;5029620;28;20037;-73
2022/07/17 02:50:33;;;;;;;15.82;4.57;;;;;;;11.08;81.57;102501.34;5030058;28;20034;-73
2022/07/17 02:52:58;;;;;;;11.73;3.78;;;;;;;11.03;81.34;102500.72;5031312;28;20049;-73
2022/07/17 02:55:23;;;;;;;16.45;4.45;;;;;;;11.00;81.64;102503.56;5024982;28;20569;-73
2022/07/17 02:57:49;;;;;;;18.85;4.32;;;;;;;10.97;81.77;102506.41;5030796;28;20071;-73
2022/07/17 03:00:16;;;;;;;12.10;4.43;;;;;;;10.98;82.04;102508.13;5030203;28;20473;-73
2022/07/17 03:02:43;;;;;;;14.25;3.88;;;;;;;10.94;82.23;102512.81;5023703;28;20053;-73
2022/07/17 03:05:09;;;;;;;15.40;4.22;;;;;;;10.91;82.15;102512.06;5029481;28;20091;-73
2022/07/17 03:07:34;;;;;;;14.10;4.50;;;;;;;10.83;82.42;102509.75;5032623;28;20029;-73
2022/07/17 03:09:59;;;;;;;12.73;3.97;;;;;;;10.81;82.87;102517.88;5030266;28;20500;-73
2022/07/17 03:12:24;;;;;;;12.43;4.03;;;;;;;10.80;82.79;102518.81;5031754;28;20086;-73
2022/07/17 03:14:50;;;;;;;13.32;3.75;;;;;;;10.81;82.99;102531.34;5027262;28;21339;-73
2022/07/17 03:17:15;;;;;;;14.27;4.03;;;;;;;10.87;82.61;102532.00;5031140;28;20025;-73
2022/07/17 03:19:41;;;;;;;11.43;3.45;;;;;;;10.88;81.92;102528.34;5020884;28;20053;-73
2022/07/17 03:22:06;;;;;;;10.73;3.65;;;;;;;10.89;82.14;102532.78;5020679;28;20026;-73
2022/07/17 03:24:31;;;;;;;12.93;4.65;;;;;;;10.87;81.76;102534.69;5032883;28;20041;-73
2022/07/17 03:26:57;;;;;;;12.32;3.90;;;;;;;10.86;81.66;102525.72;5026363;28;20069;-73
2022/07/17 03:29:23;;;;;;;12.82;4.03;;;;;;;10.86;82.01;102517.66;5022780;28;20017;-73
2022/07/17 03:31:48;;;;;;;15.18;3.97;;;;;;;10.86;82.19;102520.34;5025274;28;20045;-73
2022/07/17 03:34:14;;;;;;;17.02;4.78;;;;;;;10.80;82.12;102526.88;5031239;28;20022;-73
2022/07/17 03:36:40;;;;;;;10.95;3.70;;;;;;;10.77;82.60;102524.34;5030688;28;20057;-73
2022/07/17 03:39:05;;;;;;;14.50;4.10;;;;;;;10.77;82.58;102529.72;5030299;28;20453;-73
2022/07/17 03:41:31;;;;;;;17.00;4.47;;;;;;;10.68;82.51;102516.72;5030813;28;20068;-73
2022/07/17 03:43:56;;;;;;;13.35;4.35;;;;;;;10.64;82.84;102523.19;5029027;28;20029;-73
2022/07/17 03:46:22;;;;;;;13.30;4.30;;;;;;;10.64;82.28;102517.81;5029814;28;20087;-73
2022/07/17 03:48:47;;;;;;;13.80;4.65;;;;;;;10.58;82.92;102515.41;5029574;28;20033;-73
2022/07/17 03:51:12;;;;;;;13.20;4.10;;;;;;;10.55;82.78;102520.94;5028833;28;20037;-73
2022/07/17 03:53:37;;;;;;;12.15;4.22;;;;;;;10.54;82.96;102524.56;5030696;28;20029;-73
2022/07/17 03:56:04;;;;;;;12.90;4.07;;;;;;;10.56;83.25;102525.38;5018743;28;20030;-73
2022/07/17 03:58:30;;;;;;;17.60;4.70;;;;;;;10.55;83.51;102515.56;5031375;28;20029;-73
2022/07/17 04:00:55;;;;;;;11.93;4.38;;;;;;;10.55;83.52;102523.63;5030800;28;20539;-73
2022/07/17 04:03:20;;;;;;;11.50;4.05;;;;;;;10.54;83.38;102529.94;5024333;28;20055;-73
2022/07/17 04:05:46;;;;;;;10.30;3.65;;;;;;;10.53;83.16;102528.19;5028776;28;20144;-73
2022/07/17 04:08:12;;;;;;;13.40;4.18;;;;;;;10.47;83.59;102524.84;5028979;28;20037;-73
2022/07/17 04:10:38;;;;;;;15.45;4.22;;;;;;;10.52;83.71;102527.31;5028976;28;20052;-73
2022/07/17 04:13:03;;;;;;;14.00;3.85;;;;;;;10.54;83.42;102533.53;5031108;28;20065;-73
2022/07/17 04:18:12;;;;;;;16.38;4.47;;;;;;;10.57;83.22;102533.38;5029688;28;20128;-73
2022/07/17 04:20:37;;;;;;;14.02;4.05;;;;;;;10.55;83.31;102540.63;5027070;28;20108;-73
2022/07/17 04:23:04;;;;;;;12.52;4.72;;;;;;;10.56;83.29;102542.38;5025162;28;20030;-73
2022/07/17 04:25:30;;;;;;;17.40;4.78;;;;;;;10.60;83.44;102548.47;5021717;28;20280;-73
2022/07/17 04:27:55;;;;;;;19.25;5.50;;;;;;;10.63;83.42;102543.84;5025186;28;20428;-73
2022/07/17 04:30:21;;;;;;;13.13;4.13;;;;;;;10.67;83.36;102541.88;5026571;28;20428;-73
2022/07/17 04:32:46;;;;;;;12.30;4.65;;;;;;;10.67;83.21;102541.88;5031352;28;20017;-73
2022/07/17 04:35:11;;;;;;;15.82;4.90;;;;;;;10.69;83.73;102545.38;5029497;28;20037;-73
2022/07/17 04:37:37;;;;;;;17.48;4.50;;;;;;;10.73;83.66;102551.47;5025092;28;20037;-73
2022/07/17 04:40:02;;;;;;;14.90;5.05;;;;;;;10.76;83.28;102543.25;5028481;28;20033;-73
2022/07/17 04:42:27;;;;;;;14.57;4.47;;;;;;;10.76;84.00;102536.06;5029036;28;20029;-73
2022/07/17 04:44:53;;;;;;;15.60;4.60;;;;;;;10.77;84.20;102532.41;5028067;28;20040;-73
2022/07/17 04:47:18;;;;;;;13.80;5.00;;;;;;;10.83;84.51;102531.25;5030532;28;20036;-73
2022/07/17 04:49:43;;;;;;;17.58;5.07;;;;;;;10.89;84.43;102540.88;5023087;28;20409;-73
2022/07/17 04:52:08;;;;;;;19.83;5.93;;;;;;;10.94;84.66;102557.66;5023470;28;20034;-73
2022/07/17 04:54:34;;;;;;;16.38;5.13;;;;;;;10.99;84.24;102552.94;5027716;28;20024;-73
2022/07/17 04:56:59;;;;;;;13.77;4.38;;;;;;;11.04;84.27;102547.31;5023764;28;20026;-74
2022/07/17 04:59:24;;;;;;;17.02;5.28;;;;;;;11.10;84.66;102555.97;5032774;28;20021;-74
2022/07/17 05:01:49;;;;;;;12.82;4.72;;;;;;;11.16;84.47;102569.13;5028781;28;20033;-74
2022/07/17 05:04:15;;;;;;;15.63;5.38;;;;;;;11.22;84.48;102569.81;5033457;28;20493;-74
2022/07/17 05:06:40;;;;;;;12.93;4.50;;;;;;;11.28;84.68;102569.50;5028540;28;20021;-74
2022/07/17 05:09:05;;;;;;;13.98;4.38;;;;;;;11.32;85.37;102563.88;5034346;28;20061;-73
2022/07/17 05:11:30;;;;;;;16.20;5.22;;;;;;;11.37;85.12;102561.81;5022300;28;20105;-73
2022/07/17 05:13:56;;;;;;;17.23;4.82;;;;;;;11.44;85.82;102557.03;5033814;28;20025;-73
2022/07/17 05:16:21;;;;;;;23.38;5.45;;;;;;;11.48;86.43;102555.94;5033301;28;20373;-73
2022/07/17 05:18:46;;;;;;;17.55;4.57;;;;;;;11.52;85.95;102545.84;5037888;28;20029;-73
2022/07/17 05:21:14;;;;;;;20.20;5.45;;;;;;;11.59;85.46;102546.44;5026532;28;20072;-73
2022/07/17 05:23:39;;;;;;;17.08;5.47;;;;;;;11.63;86.21;102548.03;5030136;28;20034;-73
2022/07/17 05:26:05;;;;;;;18.70;5.15;;;;;;;11.69;86.03;102553.09;5028723;28;20509;-72
2022/07/17 05:28:30;;;;;;;22.00;5.15;;;;;;;11.78;86.89;102551.75;5030478;28;20037;-72
2022/07/17 05:30:55;;;;;;;15.90;4.95;;;;;;;11.84;86.78;102552.28;5031470;28;20021;-72
2022/07/17 05:33:20;;;;;;;18.02;5.38;;;;;;;11.93;87.80;102559.06;5032345;28;20025;-72
2022/07/17 05:35:46;;;;;;;20.58;4.95;;;;;;;12.00;88.18;102554.25;5027603;28;20029;-72
2022/07/17 05:38:11;;;;;;;15.73;4.80;;;;;;;12.10;87.38;102560.03;5034899;28;20025;-72
2022/07/17 05:40:36;;;;;;;16.52;5.13;;;;;;;12.16;88.26;102547.09;5026408;28;20389;-73
2022/07/17 05:43:02;;;;;;;14.98;5.13;;;;;;;12.24;87.97;102547.56;5024001;28;20029;-73
2022/07/17 05:45:27;;;;;;;17.58;5.10;;;;;;;12.35;87.56;102546.13;5032023;28;20025;-73
2022/07/17 05:47:52;;;;;;;15.05;4.95;;;;;;;12.42;86.14;102547.53;5033412;28;20460;-73
2022/07/17 05:50:17;;;;;;;16.27;4.88;;;;;;;12.51;81.86;102541.63;5031071;28;20025;-73
2022/07/17 05:52:43;;;;;;;19.50;4.72;;;;;;;12.61;84.42;102555.50;5026697;28;20036;-73
2022/07/17 05:55:09;;;;;;;17.30;4.82;;;;;;;12.68;83.36;102553.31;5023045;28;20030;-73
2022/07/17 05:57:34;;;;;;;17.50;5.13;;;;;;;12.77;84.48;102542.03;5027638;28;20025;-73
2022/07/17 05:59:59;;;;;;;14.32;4.93;;;;;;;12.84;84.14;102543.44;5032201;28;20529;-73
2022/07/17 06:02:25;;;;;;;15.07;5.20;;;;;;;12.90;83.93;102545.78;5031036;28;20033;-73
2022/07/17 06:04:50;;;;;;;16.90;4.93;;;;;;;13.00;84.63;102539.88;5032512;28;20499;-73
2022/07/17 06:07:15;;;;;;;16.83;5.47;;;;;;;13.07;82.88;102542.13;5034929;28;20084;-73
2022/07/17 06:09:40;;;;;;;21.05;5.60;;;;;;;13.17;80.84;102533.53;5031141;28;20037;-73
2022/07/17 06:12:06;;;;;;;19.27;5.93;;;;;;;13.24;80.54;102524.97;5028732;28;20036;-73
2022/07/17 06:14:31;;;;;;;21.15;5.47;;;;;;;13.32;79.28;102523.66;5033959;28;20024;-73
2022/07/17 06:16:57;;;;;;;18.80;5.68;;;;;;;13.41;80.92;102531.25;5031541;28;20026;-73
2022/07/17 06:19:22;;;;;;;17.08;6.13;;;;;;;13.49;78.80;102522.72;5025526;28;20398;-73
2022/07/17 06:21:47;;;;;;;16.75;5.65;;;;;;;13.57;78.79;102515.91;5031052;28;20115;-73
2022/07/17 06:24:12;;;;;;;17.88;5.85;;;;;;;13.64;79.11;102525.34;5027861;28;20073;-73
2022/07/17 06:26:38;;;;;;;17.38;5.57;;;;;;;13.71;80.19;102525.00;5033411;28;20466;-73
2022/07/17 06:29:03;;;;;;;17.42;6.47;;;;;;;13.80;78.84;102533.41;5023339;28;20041;-73
2022/07/17 06:31:28;;;;;;;20.40;5.22;;;;;;;13.87;76.91;102541.16;5027428;28;20337;-73
2022/07/17 06:33:53;;;;;;;19.25;5.15;;;;;;;13.94;77.31;102540.69;5025922;28;20026;-73
2022/07/17 06:36:19;;;;;;;19.23;6.63;;;;;;;14.03;77.29;102551.94;5030987;28;20017;-73
2022/07/17 06:38:44;;;;;;;19.75;6.78;;;;;;;14.08;75.60;102541.69;5019157;28;20440;-73
2022/07/17 06:41:10;;;;;;;19.33;5.93;;;;;;;14.12;76.46;102543.25;5028569;28;20041;-73
2022/07/17 06:43:35;;;;;;;18.65;6.35;;;;;;;14.19;75.09;102560.84;5027754;28;20031;-73
2022/07/17 06:46:00;;;;;;;17.83;6.05;;;;;;;14.27;74.71;102563.06;5031461;28;20039;-73
2022/07/17 06:48:25;;;;;;;18.42;6.45;;;;;;;14.34;75.52;102565.28;5030811;28;20147;-73
2022/07/17 06:50:51;;;;;;;18.70;6.30;;;;;;;14.42;75.44;102572.06;5024848;28;20028;-73
2022/07/17 06:53:16;;;;;;;21.77;5.78;;;;;;;14.49;75.68;102568.00;5027605;28;20030;-74
2022/07/17 06:55:42;;;;;;;15.90;5.88;;;;;;;14.55;74.04;102572.16;5027693;28;20049;-74
2022/07/17 06:58:07;;;;;;;18.67;5.80;;;;;;;14.60;73.03;102570.06;5030630;28;20029;-74
2022/07/17 07:00:33;;;;;;;18.42;5.75;;;;;;;14.66;72.60;102575.09;5030725;28;20095;-74
2022/07/17 07:02:58;;;;;;;22.52;7.00;;;;;;;14.72;72.60;102574.72;5031969;28;20022;-74
2022/07/17 07:05:23;;;;;;;17.00;6.15;;;;;;;14.78;72.84;102585.13;5030641;28;20033;-74
2022/07/17 07:07:48;;;;;;;18.45;6.35;;;;;;;14.87;74.53;102575.56;5018171;28;20033;-74
2022/07/17 07:10:14;;;;;;;15.93;5.63;;;;;;;14.91;71.77;102582.53;5027902;28;20087;-74
2022/07/17 07:12:39;;;;;;;20.63;6.10;;;;;;;14.96;71.34;102583.09;5031266;28;20393;-74
2022/07/17 07:15:05;;;;;;;18.45;6.22;;;;;;;15.02;72.10;102588.13;5030411;28;20373;-74
2022/07/17 07:17:31;;;;;;;21.60;6.75;;;;;;;15.09;73.42;102587.72;5031140;28;20025;-74
2022/07/17 07:19:58;;;;;;;19.45;6.35;;;;;;;15.16;73.00;102599.91;5030783;28;20100;-74
2022/07/17 07:22:23;;;;;;;20.90;5.90;;;;;;;15.24;72.94;102600.25;5018971;28;20056;-74
2022/07/17 07:24:48;;;;;;;15.90;5.25;;;;;;;15.28;71.75;102596.38;5015546;28;20053;-74
2022/07/17 07:27:13;;;;;;;18.75;5.78;;;;;;;15.32;69.74;102597.91;5027253;28;20072;-75
2022/07/17 07:29:39;;;;;;;15.25;5.03;;;;;;;15.40;69.87;102593.84;5030494;28;20021;-75
2022/07/17 07:32:04;;;;;;;13.68;5.10;;;;;;;15.44;69.57;102590.81;5028399;28;20037;-74
2022/07/17 07:34:29;;;;;;;12.95;4.53;;;;;;;15.51;70.16;102588.59;5015543;28;20030;-74
2022/07/17 07:36:55;;;;;;;19.75;5.47;;;;;;;15.59;71.81;102585.34;5030855;28;20029;-74
2022/07/17 07:39:20;;;;;;;16.45;6.18;;;;;;;15.64;70.07;102584.09;5033340;28;20033;-74
2022/07/17 07:41:46;;;;;;;17.85;4.60;;;;;;;15.69;70.56;102589.19;5030051;28;20017;-74
2022/07/17 07:44:12;;;;;;;15.73;5.03;;;;;;;15.76;69.51;102592.38;5025033;28;20033;-74
2022/07/17 07:46:37;;;;;;;20.42;5.95;;;;;;;15.80;70.47;102596.63;5030264;28;20033;-74
2022/07/17 07:49:03;;;;;;;18.75;5.32;;;;;;;15.87;70.47;102592.53;5024540;28;20037;-75
2022/07/17 07:51:28;;;;;;;15.30;4.47;;;;;;;15.93;71.68;102594.84;5019027;28;20036;-75
2022/07/17 07:53:53;;;;;;;16.08;4.82;;;;;;;15.97;69.39;102595.47;5030535;28;20497;-74
2022/07/17 07:56:18;;;;;;;22.83;5.15;;;;;;;16.01;69.14;102595.16;5030435;28;20063;-74
2022/07/17 07:58:44;;;;;;;14.60;4.22;;;;;;;16.07;69.91;102593.88;5021152;28;20022;-73
2022/07/17 08:01:09;;;;;;;14.48;3.75;;;;;;;16.13;68.64;102601.56;5025655;28;20064;-73
2022/07/17 08:03:34;;;;;;;12.23;4.00;;;;;;;16.19;68.01;102595.75;5031584;28;20028;-74
2022/07/17 08:05:59;;;;;;;12.50;3.60;;;;;;;16.24;67.23;102600.84;5028762;28;20021;-74
2022/07/17 08:08:26;;;;;;;12.48;3.90;;;;;;;16.30;69.46;102600.41;5044100;28;20377;-75
2022/07/17 08:10:51;;;;;;;16.42;4.10;;;;;;;16.35;68.37;102598.22;5029537;28;20478;-75
2022/07/17 08:13:17;;;;;;;12.32;3.75;;;;;;;16.39;67.52;102601.63;5029928;28;20656;-75
2022/07/17 08:15:42;;;;;;;11.30;3.15;;;;;;;16.39;67.47;102605.19;5029236;28;20025;-75
2022/07/17 08:18:07;;;;;;;10.43;3.58;;;;;;;16.41;66.46;102597.84;5029363;28;20108;-73
2022/07/17 08:20:32;;;;;;;14.07;4.05;;;;;;;16.48;65.81;102608.25;5021418;28;20776;-73
2022/07/17 08:22:58;;;;;;;11.75;3.42;;;;;;;16.56;66.32;102604.00;5030543;28;20029;-74
2022/07/17 08:25:23;;;;;;;9.80;2.92;;;;;;;16.61;65.26;102603.69;5022973;28;20045;-74
2022/07/17 08:27:48;;;;;;;14.52;3.55;;;;;;;16.70;64.79;102603.00;5017118;28;20033;-74
2022/07/17 08:30:14;;;;;;;9.65;3.20;;;;;;;16.77;66.00;102604.31;5027582;28;20025;-74
2022/07/17 08:32:40;;;;;;;12.50;3.58;;;;;;;16.86;66.76;102601.94;5020562;28;20073;-74
2022/07/17 08:35:06;;;;;;;10.98;3.50;;;;;;;16.92;66.20;102599.66;5010736;28;20030;-74
2022/07/17 08:37:45;;;;;;;12.75;3.45;;;;;;;16.98;64.53;102601.06;5023960;28;20031;-74
2022/07/17 08:40:21;;;;;;;11.30;3.63;;;;;;;17.02;62.98;102604.44;5030778;28;20033;-74
2022/07/17 08:42:46;;;;;;;13.15;3.22;;;;;;;17.03;62.26;102596.19;5031088;28;20044;-74
2022/07/17 08:45:12;;;;;;;13.45;3.53;;;;;;;17.09;62.95;102594.88;5030540;28;20440;-74
2022/07/17 08:47:39;;;;;;;14.18;3.80;;;;;;;17.19;62.61;102592.31;5030759;28;20026;-74
2022/07/17 08:50:05;;;;;;;14.88;3.17;;;;;;;17.20;61.33;102591.34;5021996;28;20030;-74
2022/07/17 08:52:30;;;;;;;15.65;4.03;;;;;;;17.23;61.39;102591.13;5027261;28;20057;-74
2022/07/17 08:54:57;;;;;;;17.10;3.25;;;;;;;17.23;63.04;102594.72;5010766;28;20130;-73
2022/07/17 08:57:22;;;;;;;14.02;3.88;;;;;;;17.29;63.13;102602.41;5023159;28;20095;-73
2022/07/17 08:59:48;;;;;;;11.30;3.45;;;;;;;17.37;65.04;102588.25;5032478;28;20029;-73
2022/07/17 09:02:13;;;;;;;14.43;3.78;;;;;;;17.35;62.22;102595.66;5031521;28;20496;-73
2022/07/17 09:04:39;;;;;;;13.27;3.55;;;;;;;17.44;63.00;102597.69;5030445;28;20026;-74
2022/07/17 09:07:05;;;;;;;10.95;3.10;;;;;;;17.50;62.63;102592.75;5030610;28;20032;-75
2022/07/17 09:09:33;;;;;;;9.90;2.78;;;;;;;17.54;60.75;102597.84;5030346;28;20026;-74
2022/07/17 09:12:00;;;;;;;16.17;3.53;;;;;;;17.59;59.88;102592.06;5030467;28;20075;-74
2022/07/17 09:14:38;;;;;;;8.63;2.45;;;;;;;17.69;63.18;102595.81;5031712;28;20508;-75
2022/07/17 09:17:05;;;;;;;11.38;3.38;;;;;;;17.77;61.48;102589.78;5019847;28;20071;-73
2022/07/17 09:19:40;;;;;;;8.57;2.70;;;;;;;17.77;60.65;102592.50;5024406;28;20069;-74
2022/07/17 09:22:05;;;;;;;11.65;2.90;;;;;;;17.79;58.63;102582.41;5023532;28;20029;-74
2022/07/17 09:24:56;;;;;;;10.50;3.40;;;;;;;17.80;60.57;102587.72;5016368;28;20060;-74
2022/07/17 09:27:24;;;;;;;13.07;2.85;;;;;;;17.83;62.62;102589.31;5020497;28;20026;-74
2022/07/17 09:29:57;;;;;;;9.95;3.22;;;;;;;17.88;61.80;102586.25;5021614;28;20034;-74
2022/07/17 09:32:28;;;;;;;8.48;3.20;;;;;;;17.92;63.31;102583.22;5015811;28;20033;-74
2022/07/17 09:34:55;;;;;;;13.07;2.60;;;;;;;17.98;61.66;102593.63;5021191;28;20042;-74
2022/07/17 09:37:26;;;;;;;7.75;2.83;;;;;;;18.00;61.71;102588.06;5035041;28;20026;-74
2022/07/17 09:39:53;;;;;;;9.65;3.13;;;;;;;18.05;59.95;102583.13;5023056;28;20037;-74
2022/07/17 09:42:30;;;;;;;9.60;2.78;;;;;;;18.09;58.92;102584.63;5021818;28;20017;-74
2022/07/17 09:45:08;;;;;;;9.88;2.70;;;;;;;18.14;56.53;102587.88;5019808;28;20034;-74
2022/07/17 09:47:35;;;;;;;9.73;2.58;;;;;;;18.20;58.51;102589.25;5027059;28;20087;-74
2022/07/17 09:50:03;;;;;;;10.80;2.50;;;;;;;18.22;56.11;102584.53;5022829;28;20033;-73
2022/07/17 09:52:32;;;;;;;9.60;2.65;;;;;;;18.26;54.16;102585.16;5042084;28;20386;-73
2022/07/17 09:54:58;;;;;;;;;;;;;;;18.29;58.73;102587.66;5032182;28;20448;-73
2022/07/17 09:57:27;;;;;;;10.00;2.70;;;;;;;18.36;55.54;102583.47;5025269;28;19920;-73
2022/07/17 09:59:55;;;;;;;10.93;2.70;;;;;;;18.37;54.61;102579.72;5022778;28;20061;-73
2022/07/17 10:02:21;;;;;;;10.75;3.03;;;;;;;18.44;55.14;102580.97;5015507;28;20033;-73
2022/07/17 10:04:47;;;;;;;6.68;2.45;;;;;;;18.50;54.67;102587.78;5022842;28;20108;-73
2022/07/17 10:07:12;;;;;;;7.22;2.15;;;;;;;18.48;56.98;102581.63;5014692;28;20074;-73
2022/07/17 10:09:39;;;;;;;7.22;2.38;;;;;;;18.58;54.29;102587.19;5026797;28;20425;-73
2022/07/17 10:12:06;;;;;;;8.63;2.70;;;;;;;18.65;55.00;102593.88;5027338;28;20036;-73
2022/07/17 10:14:32;;;;;;;7.65;2.40;;;;;;;18.64;53.80;102593.00;5027365;28;20095;-73
2022/07/17 10:17:14;;;;;;;9.02;2.17;;;;;;;18.69;54.49;102579.03;5022618;28;20493;-73
2022/07/17 10:19:53;;;;;;;4.40;1.95;;;;;;;18.67;57.33;102583.75;5023278;28;20033;-73
2022/07/17 10:22:19;;;;;;;8.60;2.40;;;;;;;18.71;49.31;102581.63;5027129;28;20021;-74
2022/07/17 10:24:55;;;;;;;6.30;2.15;;;;;;;18.81;49.60;102585.34;5028848;28;20041;-74
2022/07/17 10:27:30;;;;;;;9.35;2.47;;;;;;;18.84;52.02;102579.63;5023004;28;20029;-74
2022/07/17 10:30:26;;;;;;;9.13;2.40;;;;;;;18.85;52.85;102582.22;5026249;28;20156;-74
2022/07/17 10:32:58;;;;;;;5.40;2.13;;;;;;;18.89;52.08;102592.91;5025548;28;20104;-74
2022/07/17 10:35:24;;;;;;;10.05;2.80;;;;;;;18.91;54.42;102582.78;5024430;28;20319;-73
2022/07/17 10:37:49;;;;;;;2.92;1.27;;;;;;;18.88;57.53;102572.13;5019331;28;20116;-73
2022/07/17 10:40:19;;;;;;;11.07;3.13;;;;;;;18.95;55.31;102576.09;5023385;28;20109;-74
2022/07/17 10:42:56;;;;;;;6.65;2.30;;;;;;;19.00;55.13;102582.00;5025949;28;20116;-74
2022/07/17 10:45:24;;;;;;;6.65;2.63;;;;;;;19.11;55.17;102581.16;5025912;28;20036;-74
2022/07/17 10:47:54;;;;;;;7.55;2.75;;;;;;;19.11;55.44;102582.00;5027882;28;20038;-73
2022/07/17 10:50:25;;;;;;;5.82;2.15;;;;;;;19.21;53.19;102582.13;5019933;28;20053;-73
2022/07/17 10:53:03;;;;;;;5.65;2.50;;;;;;;19.33;53.76;102581.09;5026058;28;20029;-73
2022/07/17 10:55:29;;;;;;;7.57;2.00;;;;;;;19.29;55.83;102581.47;5029874;28;20081;-73
2022/07/17 10:57:56;;;;;;;8.05;2.63;;;;;;;19.30;48.56;102580.50;5025587;28;20036;-73
2022/07/17 11:00:22;;;;;;;9.15;2.40;;;;;;;19.39;50.92;102585.16;5026774;28;20034;-73
2022/07/17 11:02:47;;;;;;;7.70;2.45;;;;;;;19.41;53.20;102582.31;5026305;28;20382;-72
2022/07/17 11:05:16;;;;;;;11.93;2.97;;;;;;;19.48;51.15;102583.53;5023828;28;20117;-72
2022/07/17 11:07:59;;;;;;;7.90;2.88;;;;;;;19.52;54.61;102585.00;5019231;28;20486;-72
2022/07/17 11:10:26;;;;;;;7.22;2.92;;;;;;;19.67;54.55;102582.84;5019159;28;20033;-73
2022/07/17 11:13:06;;;;;;;7.50;2.63;;;;;;;19.71;53.36;102576.13;5017034;28;20030;-73
2022/07/17 11:15:44;;;;;;;8.15;2.45;;;;;;;19.73;53.88;102575.00;5016436;28;20632;-73
2022/07/17 11:18:16;;;;;;;10.18;2.75;;;;;;;19.72;55.55;102572.38;5033930;28;20099;-73